This is the latest recevied weather packets stored in our database for station/object KD9IXX-13. If no packets are shown the sender has not sent any weather packets the latest 10 day(s).
| Time | Temp. | Humidity | Pressure | Rain* | Wind** | Luminosity | Snow |
|---|---|---|---|---|---|---|---|
| 1787711402 | 18.89° C | 88% | 1018.3 hPa | 0 mm | - | 0 W/m² | - |
| 1787709601 | 18.89° C | 89% | 1018.5 hPa | 0 mm | - | 0 W/m² | - |
| 1787708102 | 18.89° C | 88% | 1018.3 hPa | 0 mm | - | 0 W/m² | - |
| 1787707503 | 19.44° C | 87% | 1018.4 hPa | 0 mm | - | 0 W/m² | - |
| 1787706902 | 19.44° C | 86% | 1018 hPa | 0 mm | - | 0 W/m² | - |
| 1787706602 | 20° C | 85% | 1018.4 hPa | 0 mm | - | 0 W/m² | - |
| 1787705102 | 21.67° C | 80% | 1018.4 hPa | 0 mm | - | 0 W/m² | - |
| 1787704802 | 21.67° C | 80% | 1018.4 hPa | 0 mm | - | 0 W/m² | - |
| 1787704203 | 22.22° C | 77% | 1018.5 hPa | 0 mm | - | 4 W/m² | - |
| 1787703602 | 22.78° C | 74% | 1018.7 hPa | 0 mm | - | 10 W/m² | - |
| 1787703002 | 22.78° C | 72% | 1018.8 hPa | 0 mm | - | 16 W/m² | - |
| 1787702402 | 23.33° C | 70% | 1018.8 hPa | 0 mm | - | 22 W/m² | - |
| 1787702102 | 23.33° C | 69% | 1019.1 hPa | 0 mm | - | 24 W/m² | - |
| 1787701502 | 23.89° C | 67% | 1019 hPa | 0 mm | - | 29 W/m² | - |
| 1787700601 | 24.44° C | 64% | 1019.2 hPa | 0 mm | - | 46 W/m² | - |
| 1787700002 | 25° C | 63% | 1019.2 hPa | 0 mm | - | 54 W/m² | - |
| 1787698502 | 25.56° C | 60% | 1019.4 hPa | 0 mm | - | 133 W/m² | - |
| 1787697303 | 25.56° C | 59% | 1019.4 hPa | 0 mm | - | 183 W/m² | - |
| 1787696401 | 24.44° C | 63% | 1019.4 hPa | 0 mm | - | 138 W/m² | - |
| 1787696102 | 24.44° C | 62% | 1019.1 hPa | 0 mm | - | 130 W/m² | - |
| 1787694002 | 25° C | 60% | 1019.2 hPa | 0 mm | - | 182 W/m² | - |
| 1787693402 | 25.56° C | 59% | 1019.5 hPa | 0 mm | - | 166 W/m² | - |
| 1787693102 | 25.56° C | 56% | 1019.4 hPa | 0 mm | - | 290 W/m² | - |
| 1787692502 | 26.11° C | 58% | 1019.5 hPa | 0 mm | - | 268 W/m² | - |
| 1787691902 | 26.11° C | 59% | 1019.5 hPa | 0 mm | - | 337 W/m² | - |
* Rain latest hour (hover to see other rain measurements)
** Current wind speed in m/s (hover to see current wind gust speed)